Time,TemperatureF,DewpointF,PressureIn,WindDirection,WindDirectionDegrees,WindSpeedMPH,WindSpeedGustMPH,Humidity,HourlyPrecipIn,Conditions,Clouds,dailyrainin,SolarRadiationWatts/m^2,SoftwareType,DateUTC
2013-03-28 14:52:00,51.0,19.0,-100.00,NNW,335,10.0,20.0,28,-99.99,,,0.00,999.000000,,2013-03-28 18:52:00,
2013-03-28 15:02:00,51.0,19.0,-100.00,NNW,335,10.0,20.0,28,-99.99,,,0.00,999.000000,,2013-03-28 19:02:00,
2013-03-28 15:33:00,52.0,22.0,-100.00,WNW,303,13.0,19.0,31,0.00,,,0.00,965.000000,,2013-03-28 19:33:00,
2013-03-28 15:43:00,52.0,22.0,-100.00,WNW,303,13.0,19.0,31,0.00,,,0.00,965.000000,,2013-03-28 19:43:00,
2013-03-28 15:52:00,52.0,22.0,-100.00,WNW,303,13.0,19.0,31,0.00,,,0.00,965.000000,,2013-03-28 19:52:00,
2013-03-28 16:03:00,52.0,22.0,-100.00,WNW,303,13.0,19.0,31,0.00,,,0.00,965.000000,,2013-03-28 20:03:00,
2013-03-28 16:33:00,53.0,23.0,-100.00,NW,322,11.0,26.0,31,0.00,,,0.00,854.000000,,2013-03-28 20:33:00,
2013-03-28 16:42:00,53.0,23.0,-100.00,NW,322,11.0,26.0,31,0.00,,,0.00,854.000000,,2013-03-28 20:42:00,
2013-03-28 16:53:00,53.0,23.0,-100.00,NW,322,11.0,26.0,31,0.00,,,0.00,854.000000,,2013-03-28 20:53:00,
2013-03-28 17:03:00,53.0,23.0,-100.00,NW,322,11.0,26.0,31,0.00,,,0.00,854.000000,,2013-03-28 21:03:00,
2013-03-28 17:33:00,54.0,25.0,-100.00,NW,322,12.0,25.0,32,0.00,,,0.00,677.000000,,2013-03-28 21:33:00,
2013-03-28 17:43:00,54.0,25.0,-100.00,NW,322,12.0,25.0,32,0.00,,,0.00,677.000000,,2013-03-28 21:43:00,
2013-03-28 17:53:00,54.0,25.0,-100.00,NW,322,12.0,25.0,32,0.00,,,0.00,677.000000,,2013-03-28 21:53:00,
2013-03-28 18:03:00,54.0,25.0,-100.00,NW,322,12.0,25.0,32,0.00,,,0.00,677.000000,,2013-03-28 22:03:00,
2013-03-28 18:32:00,53.0,24.0,-100.00,NW,312,10.0,22.0,32,0.00,,,0.00,465.000000,,2013-03-28 22:32:00,
2013-03-28 18:42:00,53.0,24.0,-100.00,NW,312,10.0,22.0,32,0.00,,,0.00,465.000000,,2013-03-28 22:42:00,
2013-03-28 18:53:00,53.0,24.0,-100.00,NW,312,10.0,22.0,32,0.00,,,0.00,465.000000,,2013-03-28 22:53:00,
2013-03-28 19:03:00,53.0,24.0,-100.00,NW,312,10.0,22.0,32,0.00,,,0.00,465.000000,,2013-03-28 23:03:00,
2013-03-28 19:32:00,53.0,22.0,-100.00,NW,306,9.0,19.0,30,0.00,,,0.00,245.000000,,2013-03-28 23:32:00,
2013-03-28 19:42:00,53.0,22.0,-100.00,NW,306,9.0,19.0,30,0.00,,,0.00,245.000000,,2013-03-28 23:42:00,
2013-03-28 19:53:00,53.0,22.0,-100.00,NW,306,9.0,19.0,30,0.00,,,0.00,245.000000,,2013-03-28 23:53:00,
2013-03-28 20:02:00,53.0,22.0,-100.00,NW,306,9.0,19.0,30,0.00,,,0.00,245.000000,,2013-03-29 00:02:00,
2013-03-28 20:33:00,49.0,23.0,-100.00,NW,305,3.0,15.0,35,0.00,,,-99.99,46.000000,,2013-03-29 00:33:00,
2013-03-28 20:42:00,49.0,23.0,-100.00,NW,305,3.0,15.0,35,0.00,,,-99.99,46.000000,,2013-03-29 00:42:00,
2013-03-28 20:52:00,49.0,23.0,-100.00,NW,305,3.0,15.0,35,0.00,,,-99.99,46.000000,,2013-03-29 00:52:00,
2013-03-28 21:02:00,49.0,23.0,-100.00,NW,305,3.0,15.0,35,0.00,,,-99.99,46.000000,,2013-03-29 01:02:00,
2013-03-28 21:33:00,44.0,21.0,-100.00,WNW,290,1.0,5.0,40,0.00,,,-99.99,0.000000,,2013-03-29 01:33:00,
2013-03-28 21:42:00,44.0,21.0,-100.00,WNW,290,1.0,5.0,40,0.00,,,-99.99,0.000000,,2013-03-29 01:42:00,
2013-03-28 21:52:00,44.0,21.0,-100.00,WNW,290,1.0,5.0,40,0.00,,,-99.99,0.000000,,2013-03-29 01:52:00,
2013-03-28 22:02:00,44.0,21.0,-100.00,WNW,290,1.0,5.0,40,0.00,,,-99.99,0.000000,,2013-03-29 02:02:00,
2013-03-28 22:32:00,41.0,21.0,-100.00,NNW,332,2.0,4.0,44,0.00,,,-99.99,0.000000,,2013-03-29 02:32:00,
2013-03-28 22:42:00,41.0,21.0,-100.00,NNW,332,2.0,4.0,44,0.00,,,-99.99,0.000000,,2013-03-29 02:42:00,
2013-03-28 22:53:00,41.0,21.0,-100.00,NNW,332,2.0,4.0,44,0.00,,,-99.99,0.000000,,2013-03-29 02:53:00,
2013-03-28 23:02:00,41.0,21.0,-100.00,NNW,332,2.0,4.0,44,0.00,,,-99.99,0.000000,,2013-03-29 03:02:00,
2013-03-28 23:33:00,38.0,21.0,-100.00,NW,312,0.0,2.0,49,0.00,,,-99.99,0.000000,,2013-03-29 03:33:00,
2013-03-28 23:43:00,38.0,21.0,-100.00,NW,312,0.0,2.0,49,0.00,,,-99.99,0.000000,,2013-03-29 03:43:00,
2013-03-28 23:53:00,38.0,21.0,-100.00,NW,312,0.0,2.0,49,0.00,,,-99.99,0.000000,,2013-03-29 03:53:00,